sensor_id;sensor_type;location;lat;lon;timestamp;pressure;altitude;pressure_sealevel;temperature;humidity
8061;BME280;4073;42.626;25.386;2022-08-21T00:00:45;96595.69;;;22.96;100.00
8061;BME280;4073;42.626;25.386;2022-08-21T00:03:12;96584.44;;;22.97;100.00
8061;BME280;4073;42.626;25.386;2022-08-21T00:05:41;96566.88;;;22.95;100.00
8061;BME280;4073;42.626;25.386;2022-08-21T00:08:08;96552.75;;;22.89;100.00
8061;BME280;4073;42.626;25.386;2022-08-21T00:10:34;96545.31;;;22.86;100.00
8061;BME280;4073;42.626;25.386;2022-08-21T00:13:02;96546.59;;;22.92;100.00
8061;BME280;4073;42.626;25.386;2022-08-21T00:15:30;96539.59;;;22.95;100.00
8061;BME280;4073;42.626;25.386;2022-08-21T00:17:56;96533.09;;;23.03;100.00
8061;BME280;4073;42.626;25.386;2022-08-21T00:20:22;96535.00;;;22.99;100.00
8061;BME280;4073;42.626;25.386;2022-08-21T00:22:48;96518.63;;;22.99;100.00
8061;BME280;4073;42.626;25.386;2022-08-21T00:25:15;96530.81;;;23.05;100.00
8061;BME280;4073;42.626;25.386;2022-08-21T00:27:42;96514.84;;;23.07;100.00
8061;BME280;4073;42.626;25.386;2022-08-21T00:30:09;96503.47;;;23.01;100.00
8061;BME280;4073;42.626;25.386;2022-08-21T00:32:37;96498.28;;;22.93;100.00
8061;BME280;4073;42.626;25.386;2022-08-21T00:35:05;96506.63;;;22.77;100.00
8061;BME280;4073;42.626;25.386;2022-08-21T00:37:31;96504.69;;;22.77;100.00
8061;BME280;4073;42.626;25.386;2022-08-21T00:39:56;96504.97;;;22.72;100.00
8061;BME280;4073;42.626;25.386;2022-08-21T00:42:22;96497.13;;;22.67;100.00
8061;BME280;4073;42.626;25.386;2022-08-21T00:44:48;96489.81;;;22.49;100.00
8061;BME280;4073;42.626;25.386;2022-08-21T00:47:16;96482.09;;;22.51;100.00
8061;BME280;4073;42.626;25.386;2022-08-21T00:49:42;96491.38;;;22.50;100.00
8061;BME280;4073;42.626;25.386;2022-08-21T00:52:16;96492.59;;;22.52;100.00
8061;BME280;4073;42.626;25.386;2022-08-21T00:54:43;96495.44;;;22.59;100.00
8061;BME280;4073;42.626;25.386;2022-08-21T00:57:22;96486.13;;;22.60;100.00
8061;BME280;4073;42.626;25.386;2022-08-21T00:59:52;96479.88;;;22.60;100.00
8061;BME280;4073;42.626;25.386;2022-08-21T01:02:19;96470.50;;;22.57;100.00
8061;BME280;4073;42.626;25.386;2022-08-21T01:04:46;96477.47;;;22.55;100.00
8061;BME280;4073;42.626;25.386;2022-08-21T01:07:12;96489.13;;;22.55;100.00
8061;BME280;4073;42.626;25.386;2022-08-21T01:09:42;96503.91;;;22.54;100.00
8061;BME280;4073;42.626;25.386;2022-08-21T01:12:08;96517.84;;;22.49;100.00
8061;BME280;4073;42.626;25.386;2022-08-21T01:14:35;96510.38;;;22.46;100.00
8061;BME280;4073;42.626;25.386;2022-08-21T01:17:02;96516.38;;;22.55;100.00
8061;BME280;4073;42.626;25.386;2022-08-21T01:19:29;96528.50;;;22.58;100.00
8061;BME280;4073;42.626;25.386;2022-08-21T01:21:55;96520.69;;;22.56;100.00
8061;BME280;4073;42.626;25.386;2022-08-21T01:24:21;96527.44;;;22.43;100.00
8061;BME280;4073;42.626;25.386;2022-08-21T01:26:48;96539.06;;;22.40;100.00
8061;BME280;4073;42.626;25.386;2022-08-21T01:29:34;96532.44;;;22.41;100.00
8061;BME280;4073;42.626;25.386;2022-08-21T01:32:05;96534.31;;;22.37;100.00
8061;BME280;4073;42.626;25.386;2022-08-21T01:34:33;96529.69;;;22.38;100.00
8061;BME280;4073;42.626;25.386;2022-08-21T01:36:59;96523.75;;;22.32;100.00
8061;BME280;4073;42.626;25.386;2022-08-21T01:39:24;96519.50;;;22.35;100.00
8061;BME280;4073;42.626;25.386;2022-08-21T01:41:49;96536.78;;;22.42;100.00
8061;BME280;4073;42.626;25.386;2022-08-21T01:44:15;96525.91;;;22.46;100.00
8061;BME280;4073;42.626;25.386;2022-08-21T01:46:40;96521.63;;;22.45;100.00
8061;BME280;4073;42.626;25.386;2022-08-21T01:49:06;96510.66;;;22.41;100.00
8061;BME280;4073;42.626;25.386;2022-08-21T01:51:32;96504.44;;;22.41;100.00
8061;BME280;4073;42.626;25.386;2022-08-21T01:53:57;96495.16;;;22.45;100.00
8061;BME280;4073;42.626;25.386;2022-08-21T01:56:24;96494.03;;;22.46;100.00
8061;BME280;4073;42.626;25.386;2022-08-21T01:58:51;96493.22;;;22.46;100.00
8061;BME280;4073;42.626;25.386;2022-08-21T02:01:16;96492.81;;;22.44;100.00
8061;BME280;4073;42.626;25.386;2022-08-21T02:03:42;96485.78;;;22.43;100.00
8061;BME280;4073;42.626;25.386;2022-08-21T02:06:12;96474.13;;;22.42;100.00
8061;BME280;4073;42.626;25.386;2022-08-21T02:08:38;96471.88;;;22.48;100.00
8061;BME280;4073;42.626;25.386;2022-08-21T02:11:04;96479.72;;;22.49;100.00
8061;BME280;4073;42.626;25.386;2022-08-21T02:13:29;96484.69;;;22.47;100.00
8061;BME280;4073;42.626;25.386;2022-08-21T02:15:55;96478.47;;;22.47;100.00
8061;BME280;4073;42.626;25.386;2022-08-21T02:18:20;96478.56;;;22.50;100.00
8061;BME280;4073;42.626;25.386;2022-08-21T02:20:48;96483.66;;;22.52;100.00
8061;BME280;4073;42.626;25.386;2022-08-21T02:23:14;96461.72;;;22.45;100.00
8061;BME280;4073;42.626;25.386;2022-08-21T02:25:40;96481.19;;;22.47;100.00
8061;BME280;4073;42.626;25.386;2022-08-21T02:28:09;96495.97;;;22.46;100.00
8061;BME280;4073;42.626;25.386;2022-08-21T02:30:39;96500.59;;;22.45;100.00
8061;BME280;4073;42.626;25.386;2022-08-21T02:33:05;96504.13;;;22.46;100.00
8061;BME280;4073;42.626;25.386;2022-08-21T02:35:31;96501.03;;;22.47;100.00
8061;BME280;4073;42.626;25.386;2022-08-21T02:38:00;96496.41;;;22.48;100.00
8061;BME280;4073;42.626;25.386;2022-08-21T02:40:31;96500.34;;;22.50;100.00
8061;BME280;4073;42.626;25.386;2022-08-21T02:42:58;96500.72;;;22.49;100.00
8061;BME280;4073;42.626;25.386;2022-08-21T02:45:24;96507.72;;;22.50;100.00
8061;BME280;4073;42.626;25.386;2022-08-21T02:47:58;96501.84;;;22.48;100.00
8061;BME280;4073;42.626;25.386;2022-08-21T02:50:27;96497.53;;;22.47;100.00
8061;BME280;4073;42.626;25.386;2022-08-21T02:52:53;96506.41;;;22.44;100.00
8061;BME280;4073;42.626;25.386;2022-08-21T02:55:26;96516.81;;;22.38;100.00
8061;BME280;4073;42.626;25.386;2022-08-21T02:57:54;96524.88;;;22.31;100.00
8061;BME280;4073;42.626;25.386;2022-08-21T03:00:22;96527.59;;;22.31;100.00
8061;BME280;4073;42.626;25.386;2022-08-21T03:02:48;96534.50;;;22.25;100.00
8061;BME280;4073;42.626;25.386;2022-08-21T03:05:15;96535.16;;;22.19;100.00
8061;BME280;4073;42.626;25.386;2022-08-21T03:07:42;96532.03;;;22.17;100.00
8061;BME280;4073;42.626;25.386;2022-08-21T03:10:09;96517.47;;;22.09;100.00
8061;BME280;4073;42.626;25.386;2022-08-21T03:12:35;96532.03;;;22.17;100.00
8061;BME280;4073;42.626;25.386;2022-08-21T03:15:05;96531.16;;;22.13;100.00
8061;BME280;4073;42.626;25.386;2022-08-21T03:17:32;96543.28;;;22.15;100.00
8061;BME280;4073;42.626;25.386;2022-08-21T03:19:58;96549.00;;;22.10;100.00
8061;BME280;4073;42.626;25.386;2022-08-21T03:22:24;96549.00;;;22.10;100.00
8061;BME280;4073;42.626;25.386;2022-08-21T03:24:50;96558.22;;;22.06;100.00
8061;BME280;4073;42.626;25.386;2022-08-21T03:27:17;96562.81;;;22.02;100.00
8061;BME280;4073;42.626;25.386;2022-08-21T03:29:42;96562.59;;;21.91;100.00
8061;BME280;4073;42.626;25.386;2022-08-21T03:32:08;96562.53;;;21.88;100.00
8061;BME280;4073;42.626;25.386;2022-08-21T03:34:37;96562.53;;;21.88;100.00
8061;BME280;4073;42.626;25.386;2022-08-21T03:37:05;96581.16;;;21.86;100.00
8061;BME280;4073;42.626;25.386;2022-08-21T03:39:31;96582.31;;;21.85;100.00
8061;BME280;4073;42.626;25.386;2022-08-21T03:41:57;96587.75;;;21.85;100.00
8061;BME280;4073;42.626;25.386;2022-08-21T03:44:22;96575.38;;;21.72;100.00
8061;BME280;4073;42.626;25.386;2022-08-21T03:46:48;96590.94;;;21.71;100.00
8061;BME280;4073;42.626;25.386;2022-08-21T03:49:15;96583.91;;;21.70;100.00
8061;BME280;4073;42.626;25.386;2022-08-21T03:51:40;96587.41;;;21.71;100.00
8061;BME280;4073;42.626;25.386;2022-08-21T03:54:06;96593.88;;;21.63;100.00
8061;BME280;4073;42.626;25.386;2022-08-21T03:56:31;96594.22;;;21.61;100.00
8061;BME280;4073;42.626;25.386;2022-08-21T03:58:57;96593.13;;;21.66;100.00
8061;BME280;4073;42.626;25.386;2022-08-21T04:01:23;96596.13;;;21.61;100.00
8061;BME280;4073;42.626;25.386;2022-08-21T04:03:48;96603.25;;;21.65;100.00
8061;BME280;4073;42.626;25.386;2022-08-21T04:06:13;96584.41;;;21.57;100.00
8061;BME280;4073;42.626;25.386;2022-08-21T04:08:39;96602.88;;;21.67;100.00
8061;BME280;4073;42.626;25.386;2022-08-21T04:11:08;96608.88;;;21.72;100.00
8061;BME280;4073;42.626;25.386;2022-08-21T04:13:35;96598.84;;;21.76;100.00
8061;BME280;4073;42.626;25.386;2022-08-21T04:16:01;96604.00;;;21.81;100.00
8061;BME280;4073;42.626;25.386;2022-08-21T04:18:26;96617.75;;;21.88;100.00
8061;BME280;4073;42.626;25.386;2022-08-21T04:20:53;96620.50;;;21.88;100.00
8061;BME280;4073;42.626;25.386;2022-08-21T04:23:20;96613.53;;;21.91;100.00
8061;BME280;4073;42.626;25.386;2022-08-21T04:25:46;96614.50;;;21.83;100.00
8061;BME280;4073;42.626;25.386;2022-08-21T04:28:11;96616.53;;;21.86;100.00
8061;BME280;4073;42.626;25.386;2022-08-21T04:30:37;96604.53;;;21.87;100.00
8061;BME280;4073;42.626;25.386;2022-08-21T04:33:02;96609.66;;;21.92;100.00
8061;BME280;4073;42.626;25.386;2022-08-21T04:35:29;96600.63;;;21.88;100.00
8061;BME280;4073;42.626;25.386;2022-08-21T04:37:55;96615.53;;;21.94;100.00
8061;BME280;4073;42.626;25.386;2022-08-21T04:40:22;96606.13;;;21.91;100.00
8061;BME280;4073;42.626;25.386;2022-08-21T04:43:02;96606.59;;;21.93;100.00
8061;BME280;4073;42.626;25.386;2022-08-21T04:45:43;96600.91;;;21.83;100.00
8061;BME280;4073;42.626;25.386;2022-08-21T04:48:11;96606.56;;;21.74;100.00
8061;BME280;4073;42.626;25.386;2022-08-21T04:50:45;96603.47;;;21.76;100.00
8061;BME280;4073;42.626;25.386;2022-08-21T04:53:18;96600.00;;;21.75;100.00
8061;BME280;4073;42.626;25.386;2022-08-21T04:55:47;96597.28;;;21.75;100.00
8061;BME280;4073;42.626;25.386;2022-08-21T04:58:15;96597.41;;;21.82;100.00
8061;BME280;4073;42.626;25.386;2022-08-21T05:00:43;96599.13;;;21.90;100.00
8061;BME280;4073;42.626;25.386;2022-08-21T05:03:10;96588.09;;;21.83;100.00
8061;BME280;4073;42.626;25.386;2022-08-21T05:05:36;96598.78;;;21.92;100.00
8061;BME280;4073;42.626;25.386;2022-08-21T05:08:03;96602.16;;;21.85;100.00
8061;BME280;4073;42.626;25.386;2022-08-21T05:10:47;96592.84;;;21.86;100.00
8061;BME280;4073;42.626;25.386;2022-08-21T05:13:13;96596.84;;;21.92;100.00
8061;BME280;4073;42.626;25.386;2022-08-21T05:15:39;96598.41;;;21.93;100.00
8061;BME280;4073;42.626;25.386;2022-08-21T05:18:05;96601.72;;;22.02;100.00
8061;BME280;4073;42.626;25.386;2022-08-21T05:20:32;96600.13;;;22.01;100.00
8061;BME280;4073;42.626;25.386;2022-08-21T05:23:00;96599.56;;;22.11;100.00
8061;BME280;4073;42.626;25.386;2022-08-21T05:25:26;96598.13;;;22.17;100.00
8061;BME280;4073;42.626;25.386;2022-08-21T05:27:51;96600.28;;;22.27;100.00
8061;BME280;4073;42.626;25.386;2022-08-21T05:30:17;96599.41;;;22.23;100.00
8061;BME280;4073;42.626;25.386;2022-08-21T05:32:42;96600.72;;;22.29;100.00
8061;BME280;4073;42.626;25.386;2022-08-21T05:35:08;96585.28;;;22.37;100.00
8061;BME280;4073;42.626;25.386;2022-08-21T05:37:34;96584.19;;;22.41;100.00
8061;BME280;4073;42.626;25.386;2022-08-21T05:40:00;96599.69;;;22.37;100.00
8061;BME280;4073;42.626;25.386;2022-08-21T05:42:27;96591.53;;;22.56;100.00
8061;BME280;4073;42.626;25.386;2022-08-21T05:44:53;96592.00;;;22.62;100.00
8061;BME280;4073;42.626;25.386;2022-08-21T05:47:18;96592.50;;;22.67;100.00
8061;BME280;4073;42.626;25.386;2022-08-21T05:49:44;96584.69;;;22.66;100.00
8061;BME280;4073;42.626;25.386;2022-08-21T05:52:09;96584.31;;;22.67;100.00
8061;BME280;4073;42.626;25.386;2022-08-21T05:54:36;96591.34;;;22.68;100.00
8061;BME280;4073;42.626;25.386;2022-08-21T05:57:02;96592.28;;;22.79;100.00
8061;BME280;4073;42.626;25.386;2022-08-21T05:59:27;96588.56;;;22.88;100.00
8061;BME280;4073;42.626;25.386;2022-08-21T06:01:53;96588.69;;;22.95;100.00
8061;BME280;4073;42.626;25.386;2022-08-21T06:04:18;96588.47;;;23.07;100.00
8061;BME280;4073;42.626;25.386;2022-08-21T06:06:44;96602.97;;;23.11;100.00
8061;BME280;4073;42.626;25.386;2022-08-21T06:09:10;96600.72;;;23.16;100.00
8061;BME280;4073;42.626;25.386;2022-08-21T06:11:35;96596.59;;;23.26;100.00
8061;BME280;4073;42.626;25.386;2022-08-21T06:14:01;96604.06;;;23.29;100.00
8061;BME280;4073;42.626;25.386;2022-08-21T06:16:27;96588.09;;;23.31;100.00
8061;BME280;4073;42.626;25.386;2022-08-21T06:18:53;96604.19;;;23.39;100.00
8061;BME280;4073;42.626;25.386;2022-08-21T06:21:18;96606.94;;;23.39;100.00
8061;BME280;4073;42.626;25.386;2022-08-21T06:23:44;96604.25;;;23.43;100.00
8061;BME280;4073;42.626;25.386;2022-08-21T06:26:12;96601.53;;;23.43;100.00
8061;BME280;4073;42.626;25.386;2022-08-21T06:28:38;96613.66;;;23.45;100.00
8061;BME280;4073;42.626;25.386;2022-08-21T06:31:15;96614.91;;;23.51;100.00
8061;BME280;4073;42.626;25.386;2022-08-21T06:33:42;96616.09;;;23.54;100.00
8061;BME280;4073;42.626;25.386;2022-08-21T06:36:07;96621.94;;;23.52;100.00
8061;BME280;4073;42.626;25.386;2022-08-21T06:38:34;96622.41;;;23.58;100.00
8061;BME280;4073;42.626;25.386;2022-08-21T06:41:00;96623.28;;;23.65;100.00
8061;BME280;4073;42.626;25.386;2022-08-21T06:43:25;96613.13;;;23.62;100.00
8061;BME280;4073;42.626;25.386;2022-08-21T06:45:51;96632.78;;;23.75;100.00
8061;BME280;4073;42.626;25.386;2022-08-21T06:48:16;96621.22;;;23.85;100.00
8061;BME280;4073;42.626;25.386;2022-08-21T06:50:42;96623.66;;;23.90;100.00
8061;BME280;4073;42.626;25.386;2022-08-21T06:53:12;96629.50;;;23.92;100.00
8061;BME280;4073;42.626;25.386;2022-08-21T06:55:39;96624.81;;;23.89;100.00
8061;BME280;4073;42.626;25.386;2022-08-21T06:58:05;96630.28;;;23.89;100.00
8061;BME280;4073;42.626;25.386;2022-08-21T07:00:30;96627.53;;;23.89;100.00
8061;BME280;4073;42.626;25.386;2022-08-21T07:02:57;96632.41;;;24.02;100.00
8061;BME280;4073;42.626;25.386;2022-08-21T07:05:25;96633.38;;;24.17;100.00
8061;BME280;4073;42.626;25.386;2022-08-21T07:07:51;96628.38;;;24.22;100.00
8061;BME280;4073;42.626;25.386;2022-08-21T07:10:16;96631.16;;;24.26;100.00
8061;BME280;4073;42.626;25.386;2022-08-21T07:12:42;96634.72;;;24.30;100.00
8061;BME280;4073;42.626;25.386;2022-08-21T07:15:08;96632.38;;;24.28;100.00
8061;BME280;4073;42.626;25.386;2022-08-21T07:17:33;96628.53;;;24.33;100.00
8061;BME280;4073;42.626;25.386;2022-08-21T07:19:59;96625.03;;;24.36;100.00
8061;BME280;4073;42.626;25.386;2022-08-21T07:22:24;96618.81;;;24.39;100.00
8061;BME280;4073;42.626;25.386;2022-08-21T07:24:53;96622.28;;;24.36;100.00
8061;BME280;4073;42.626;25.386;2022-08-21T07:27:19;96613.97;;;24.25;100.00
8061;BME280;4073;42.626;25.386;2022-08-21T07:29:44;96606.00;;;24.10;100.00
8061;BME280;4073;42.626;25.386;2022-08-21T07:32:10;96607.03;;;23.98;100.00
8061;BME280;4073;42.626;25.386;2022-08-21T07:34:35;96599.19;;;23.97;100.00
8061;BME280;4073;42.626;25.386;2022-08-21T07:37:01;96607.41;;;24.00;100.00
8061;BME280;4073;42.626;25.386;2022-08-21T07:39:26;96589.44;;;23.96;100.00
8061;BME280;4073;42.626;25.386;2022-08-21T07:41:51;96577.72;;;23.95;100.00
8061;BME280;4073;42.626;25.386;2022-08-21T07:44:17;96573.06;;;23.96;100.00
8061;BME280;4073;42.626;25.386;2022-08-21T07:46:42;96578.19;;;24.01;100.00
8061;BME280;4073;42.626;25.386;2022-08-21T07:49:08;96585.56;;;24.00;100.00
8061;BME280;4073;42.626;25.386;2022-08-21T07:51:34;96543.59;;;23.82;100.00
8061;BME280;4073;42.626;25.386;2022-08-21T07:53:59;96559.44;;;23.99;100.00
8061;BME280;4073;42.626;25.386;2022-08-21T07:56:26;96558.38;;;24.07;100.00
8061;BME280;4073;42.626;25.386;2022-08-21T07:58:52;96555.34;;;24.16;100.00
8061;BME280;4073;42.626;25.386;2022-08-21T08:01:18;96562.09;;;24.29;100.00
8061;BME280;4073;42.626;25.386;2022-08-21T08:03:44;96550.94;;;24.41;100.00
8061;BME280;4073;42.626;25.386;2022-08-21T08:06:10;96558.47;;;24.54;100.00
8061;BME280;4073;42.626;25.386;2022-08-21T08:08:41;96554.34;;;24.67;100.00
8061;BME280;4073;42.626;25.386;2022-08-21T08:11:08;96561.09;;;24.77;100.00
8061;BME280;4073;42.626;25.386;2022-08-21T08:13:40;96561.94;;;24.88;100.00
8061;BME280;4073;42.626;25.386;2022-08-21T08:16:06;96562.81;;;24.95;100.00
8061;BME280;4073;42.626;25.386;2022-08-21T08:18:32;96562.06;;;25.05;100.00
8061;BME280;4073;42.626;25.386;2022-08-21T08:20:57;96562.53;;;25.11;100.00
8061;BME280;4073;42.626;25.386;2022-08-21T08:23:23;96558.69;;;25.19;100.00
8061;BME280;4073;42.626;25.386;2022-08-21T08:25:48;96547.78;;;25.26;100.00
8061;BME280;4073;42.626;25.386;2022-08-21T08:28:14;96549.34;;;25.27;100.00
8061;BME280;4073;42.626;25.386;2022-08-21T08:30:39;96545.81;;;25.23;100.00
8061;BME280;4073;42.626;25.386;2022-08-21T08:33:05;96537.59;;;25.23;100.00
8061;BME280;4073;42.626;25.386;2022-08-21T08:35:30;96532.63;;;25.32;100.00
8061;BME280;4073;42.626;25.386;2022-08-21T08:37:56;96536.94;;;25.37;100.00
8061;BME280;4073;42.626;25.386;2022-08-21T08:42:55;96529.88;;;25.32;100.00
8061;BME280;4073;42.626;25.386;2022-08-21T08:45:22;96529.50;;;25.34;100.00
8061;BME280;4073;42.626;25.386;2022-08-21T08:48:01;96530.66;;;25.33;100.00
8061;BME280;4073;42.626;25.386;2022-08-21T08:53:06;96533.00;;;25.34;100.00
8061;BME280;4073;42.626;25.386;2022-08-21T08:57:57;96501.66;;;25.25;100.00
8061;BME280;4073;42.626;25.386;2022-08-21T09:00:23;96513.84;;;25.31;100.00
8061;BME280;4073;42.626;25.386;2022-08-21T09:02:53;96510.66;;;25.25;100.00
8061;BME280;4073;42.626;25.386;2022-08-21T09:05:37;96498.84;;;25.14;100.00
8061;BME280;4073;42.626;25.386;2022-08-21T09:21:35;96497.78;;;25.29;100.00
8061;BME280;4073;42.626;25.386;2022-08-21T09:26:57;96503.81;;;25.56;100.00
8061;BME280;4073;42.626;25.386;2022-08-21T09:29:27;96506.22;;;25.71;100.00
8061;BME280;4073;42.626;25.386;2022-08-21T09:31:55;96502.38;;;25.79;100.00
8061;BME280;4073;42.626;25.386;2022-08-21T09:34:30;96499.66;;;25.86;100.00
8061;BME280;4073;42.626;25.386;2022-08-21T09:36:57;96506.69;;;25.87;100.00
8061;BME280;4073;42.626;25.386;2022-08-21T09:39:28;96504.78;;;25.98;100.00
8061;BME280;4073;42.626;25.386;2022-08-21T09:42:00;96502.09;;;26.02;100.00
8061;BME280;4073;42.626;25.386;2022-08-21T09:44:29;96503.66;;;26.06;100.00
8061;BME280;4073;42.626;25.386;2022-08-21T09:46:55;96502.47;;;26.11;100.00
8061;BME280;4073;42.626;25.386;2022-08-21T09:49:36;96511.88;;;26.10;100.00
8061;BME280;4073;42.626;25.386;2022-08-21T09:52:05;96491.47;;;25.97;100.00
8061;BME280;4073;42.626;25.386;2022-08-21T09:54:39;96504.84;;;26.12;100.00
8061;BME280;4073;42.626;25.386;2022-08-21T09:59:51;96510.31;;;26.12;100.00
8061;BME280;4073;42.626;25.386;2022-08-21T10:02:27;96506.81;;;26.12;100.00
8061;BME280;4073;42.626;25.386;2022-08-21T10:04:57;96504.44;;;26.10;100.00
8061;BME280;4073;42.626;25.386;2022-08-21T10:07:26;96501.69;;;26.03;100.00
8061;BME280;4073;42.626;25.386;2022-08-21T10:10:04;96476.16;;;25.85;100.00
8061;BME280;4073;42.626;25.386;2022-08-21T10:15:22;96491.88;;;26.02;100.00
8061;BME280;4073;42.626;25.386;2022-08-21T10:23:59;96497.72;;;25.90;100.00
8061;BME280;4073;42.626;25.386;2022-08-21T10:30:00;96494.91;;;25.76;100.00
8061;BME280;4073;42.626;25.386;2022-08-21T10:43:23;96499.97;;;25.74;100.00
8061;BME280;4073;42.626;25.386;2022-08-21T10:46:16;96494.53;;;25.81;100.00
8061;BME280;4073;42.626;25.386;2022-08-21T10:48:57;96493.75;;;25.77;100.00
8061;BME280;4073;42.626;25.386;2022-08-21T10:51:37;96496.06;;;25.75;96.53
8061;BME280;4073;42.626;25.386;2022-08-21T10:56:36;96487.53;;;25.87;98.07
8061;BME280;4073;42.626;25.386;2022-08-21T11:01:42;96491.06;;;25.88;97.84
8061;BME280;4073;42.626;25.386;2022-08-21T11:04:48;96490.28;;;25.94;98.42
8061;BME280;4073;42.626;25.386;2022-08-21T11:07:28;96487.13;;;25.89;97.35
8061;BME280;4073;42.626;25.386;2022-08-21T11:09:55;96497.00;;;26.00;97.67
8061;BME280;4073;42.626;25.386;2022-08-21T11:12:34;96480.97;;;26.06;96.81
8061;BME280;4073;42.626;25.386;2022-08-21T11:17:59;96475.13;;;26.28;96.64
8061;BME280;4073;42.626;25.386;2022-08-21T11:20:59;96475.53;;;26.37;92.61
8061;BME280;4073;42.626;25.386;2022-08-21T11:23:33;96468.88;;;26.45;92.93
8061;BME280;4073;42.626;25.386;2022-08-21T11:26:07;96476.75;;;26.57;90.65
8061;BME280;4073;42.626;25.386;2022-08-21T11:28:52;96464.22;;;26.67;91.33
8061;BME280;4073;42.626;25.386;2022-08-21T11:31:45;96468.53;;;26.82;81.62
8061;BME280;4073;42.626;25.386;2022-08-21T11:34:19;96455.19;;;27.01;78.99
8061;BME280;4073;42.626;25.386;2022-08-21T11:42:27;96459.88;;;27.25;74.59
8061;BME280;4073;42.626;25.386;2022-08-21T11:51:11;96448.06;;;27.42;72.81
8061;BME280;4073;42.626;25.386;2022-08-21T11:56:28;96451.56;;;27.54;69.25
8061;BME280;4073;42.626;25.386;2022-08-21T11:59:02;96444.06;;;27.61;67.78
8061;BME280;4073;42.626;25.386;2022-08-21T12:01:32;96443.25;;;27.68;67.04
8061;BME280;4073;42.626;25.386;2022-08-21T12:04:03;96442.44;;;27.74;69.00
8061;BME280;4073;42.626;25.386;2022-08-21T12:06:34;96425.53;;;27.76;69.21
8061;BME280;4073;42.626;25.386;2022-08-21T12:09:06;96433.38;;;27.77;69.38
8061;BME280;4073;42.626;25.386;2022-08-21T12:11:48;96429.88;;;27.73;68.93
8061;BME280;4073;42.626;25.386;2022-08-21T12:14:16;96433.78;;;27.79;69.14
8061;BME280;4073;42.626;25.386;2022-08-21T12:16:48;96421.59;;;27.80;68.71
8061;BME280;4073;42.626;25.386;2022-08-21T12:19:28;96406.72;;;27.78;70.50
8061;BME280;4073;42.626;25.386;2022-08-21T12:24:33;96413.28;;;28.01;70.75
8061;BME280;4073;42.626;25.386;2022-08-21T12:27:41;96414.78;;;28.13;70.99
8061;BME280;4073;42.626;25.386;2022-08-21T12:32:59;96417.50;;;28.16;70.90
8061;BME280;4073;42.626;25.386;2022-08-21T12:35:28;96420.66;;;28.15;70.61
8061;BME280;4073;42.626;25.386;2022-08-21T12:38:02;96417.50;;;28.13;71.03
8061;BME280;4073;42.626;25.386;2022-08-21T12:40:46;96412.84;;;28.06;72.49
8061;BME280;4073;42.626;25.386;2022-08-21T12:43:16;96423.06;;;28.06;71.56
8061;BME280;4073;42.626;25.386;2022-08-21T12:45:46;96420.00;;;27.97;71.83
8061;BME280;4073;42.626;25.386;2022-08-21T12:48:26;96421.59;;;27.87;72.50
8061;BME280;4073;42.626;25.386;2022-08-21T12:53:55;96427.53;;;27.72;68.13
8061;BME280;4073;42.626;25.386;2022-08-21T12:56:24;96415.81;;;27.61;70.65
8061;BME280;4073;42.626;25.386;2022-08-21T12:58:53;96424.44;;;27.66;70.56
8061;BME280;4073;42.626;25.386;2022-08-21T13:01:28;96422.06;;;27.65;71.10
8061;BME280;4073;42.626;25.386;2022-08-21T13:03:58;96424.44;;;27.66;71.46
8061;BME280;4073;42.626;25.386;2022-08-21T13:06:29;96421.69;;;27.66;70.89
8061;BME280;4073;42.626;25.386;2022-08-21T13:08:58;96425.22;;;27.67;71.89
8061;BME280;4073;42.626;25.386;2022-08-21T13:11:29;96427.22;;;27.59;71.55
8061;BME280;4073;42.626;25.386;2022-08-21T13:13:54;96424.88;;;27.54;71.44
8061;BME280;4073;42.626;25.386;2022-08-21T13:16:25;96421.75;;;27.56;71.18
8061;BME280;4073;42.626;25.386;2022-08-21T13:19:11;96422.50;;;27.56;70.89
8061;BME280;4073;42.626;25.386;2022-08-21T13:21:43;96424.06;;;27.57;72.58
8061;BME280;4073;42.626;25.386;2022-08-21T13:24:23;96424.47;;;27.59;73.70
8061;BME280;4073;42.626;25.386;2022-08-21T13:26:50;96420.94;;;27.55;74.49
8061;BME280;4073;42.626;25.386;2022-08-21T13:29:19;96423.69;;;27.55;74.75
8061;BME280;4073;42.626;25.386;2022-08-21T13:31:56;96428.41;;;27.55;74.49
8061;BME280;4073;42.626;25.386;2022-08-21T13:34:25;96426.47;;;27.48;74.91
8061;BME280;4073;42.626;25.386;2022-08-21T13:36:55;96421.75;;;27.56;72.87
8061;BME280;4073;42.626;25.386;2022-08-21T13:39:23;96416.63;;;27.58;72.97
8061;BME280;4073;42.626;25.386;2022-08-21T13:41:52;96410.31;;;27.68;76.05
8061;BME280;4073;42.626;25.386;2022-08-21T13:46:48;96406.72;;;27.78;72.28
8061;BME280;4073;42.626;25.386;2022-08-21T13:49:18;96405.91;;;27.88;68.44
8061;BME280;4073;42.626;25.386;2022-08-21T13:51:45;96410.19;;;27.92;68.13
8061;BME280;4073;42.626;25.386;2022-08-21T13:54:39;96411.75;;;27.97;67.17
8061;BME280;4073;42.626;25.386;2022-08-21T13:57:23;96404.34;;;27.87;67.15
8061;BME280;4073;42.626;25.386;2022-08-21T13:59:49;96408.25;;;27.86;67.81
8061;BME280;4073;42.626;25.386;2022-08-21T14:02:18;96403.13;;;27.95;67.48
8061;BME280;4073;42.626;25.386;2022-08-21T14:04:55;96398.00;;;27.97;67.17
8061;BME280;4073;42.626;25.386;2022-08-21T14:10:22;96388.13;;;28.03;67.38
8061;BME280;4073;42.626;25.386;2022-08-21T14:12:50;96393.19;;;28.15;67.13
8061;BME280;4073;42.626;25.386;2022-08-21T14:15:24;96387.63;;;28.22;67.06
8061;BME280;4073;42.626;25.386;2022-08-21T14:17:50;96380.53;;;28.24;65.60
8061;BME280;4073;42.626;25.386;2022-08-21T14:20:31;96383.31;;;28.21;65.08
8061;BME280;4073;42.626;25.386;2022-08-21T14:22:57;96381.09;;;28.05;64.86
8061;BME280;4073;42.626;25.386;2022-08-21T14:27:55;96374.91;;;27.87;63.85
8061;BME280;4073;42.626;25.386;2022-08-21T14:30:31;96371.78;;;27.82;64.10
8061;BME280;4073;42.626;25.386;2022-08-21T14:32:57;96371.47;;;27.66;64.00
8061;BME280;4073;42.626;25.386;2022-08-21T14:35:24;96374.63;;;27.61;65.28
8061;BME280;4073;42.626;25.386;2022-08-21T14:37:51;96371.94;;;27.54;64.45
8061;BME280;4073;42.626;25.386;2022-08-21T14:40:17;96373.09;;;27.56;63.75